createdAt,value
2017-10-03T00:02:21.080Z,14.50
2017-10-03T00:04:48.477Z,16.20
2017-10-03T00:07:15.887Z,14.53
2017-10-03T00:09:43.287Z,13.63
2017-10-03T00:12:10.693Z,14.30
2017-10-03T00:14:38.123Z,15.17
2017-10-03T00:17:05.523Z,13.90
2017-10-03T00:19:32.925Z,13.53
2017-10-03T00:22:00.330Z,14.50
2017-10-03T00:24:27.731Z,14.10
2017-10-03T00:26:55.134Z,15.33
2017-10-03T00:29:22.560Z,15.07
2017-10-03T00:31:49.956Z,14.67
2017-10-03T00:34:17.358Z,13.30
2017-10-03T00:36:44.782Z,12.93
2017-10-03T00:39:12.180Z,13.73
2017-10-03T00:41:39.583Z,13.40
2017-10-03T00:44:06.994Z,14.20
2017-10-03T00:46:34.395Z,13.80
2017-10-03T00:49:01.809Z,13.80
2017-10-03T00:51:29.223Z,13.00
2017-10-03T00:53:56.620Z,13.13
2017-10-03T00:56:24.020Z,15.00
2017-10-03T00:58:51.746Z,13.23
2017-10-03T01:01:19.143Z,14.07
2017-10-03T01:03:46.544Z,13.53
2017-10-03T01:06:13.952Z,13.10
2017-10-03T01:08:41.417Z,13.63
2017-10-03T01:11:08.819Z,13.43
2017-10-03T01:13:36.232Z,13.30
2017-10-03T01:16:03.621Z,13.27
2017-10-03T01:18:31.024Z,14.70
2017-10-03T01:20:58.447Z,12.57
2017-10-03T01:23:25.854Z,13.17
2017-10-03T01:25:53.251Z,12.97
2017-10-03T01:28:20.675Z,12.40
2017-10-03T01:30:48.076Z,13.40
2017-10-03T01:33:15.471Z,13.87
2017-10-03T01:35:42.887Z,14.33
2017-10-03T01:38:10.287Z,14.10
2017-10-03T01:40:37.692Z,12.93
2017-10-03T01:43:05.106Z,13.63
2017-10-03T01:45:32.505Z,13.50
2017-10-03T01:47:59.908Z,14.27
2017-10-03T01:50:27.318Z,14.40
2017-10-03T01:52:54.718Z,13.93
2017-10-03T01:55:22.123Z,14.90
2017-10-03T01:57:49.544Z,14.53
2017-10-03T02:00:16.935Z,15.40
2017-10-03T02:02:44.335Z,15.43
2017-10-03T02:05:11.760Z,16.00
2017-10-03T02:07:39.155Z,14.40
2017-10-03T02:10:06.557Z,14.10
2017-10-03T02:12:33.972Z,13.70
2017-10-03T02:15:01.364Z,13.53
2017-10-03T02:17:28.768Z,12.60
2017-10-03T02:19:56.178Z,13.17
2017-10-03T02:22:23.582Z,13.83
2017-10-03T02:24:50.986Z,13.60
2017-10-03T02:27:18.402Z,13.43
2017-10-03T02:29:45.803Z,12.80
2017-10-03T02:32:13.199Z,13.70
2017-10-03T02:34:40.624Z,13.50
2017-10-03T02:37:08.030Z,14.40
2017-10-03T02:39:35.442Z,14.37
2017-10-03T02:42:02.865Z,14.77
2017-10-03T02:44:30.267Z,15.13
2017-10-03T02:46:57.668Z,13.80
2017-10-03T02:49:25.082Z,13.50
2017-10-03T02:51:52.489Z,14.20
2017-10-03T02:54:19.887Z,14.17
2017-10-03T02:56:47.303Z,14.30
2017-10-03T02:59:14.702Z,13.10
2017-10-03T03:01:42.103Z,14.40
2017-10-03T03:04:09.659Z,15.37
2017-10-03T03:06:37.060Z,14.10
2017-10-03T03:09:04.453Z,13.10
2017-10-03T03:11:31.884Z,13.40
2017-10-03T03:13:59.279Z,14.30
2017-10-03T03:16:26.671Z,12.03
2017-10-03T03:18:54.078Z,13.40
2017-10-03T03:21:21.483Z,12.80
2017-10-03T03:23:48.887Z,12.23
2017-10-03T03:26:16.307Z,12.83
2017-10-03T03:28:43.707Z,11.80
2017-10-03T03:31:11.107Z,11.80
2017-10-03T03:33:38.524Z,11.50
2017-10-03T03:36:05.928Z,12.20
2017-10-03T03:38:33.337Z,11.17
2017-10-03T03:41:00.743Z,11.23
2017-10-03T03:43:28.154Z,11.57
2017-10-03T03:45:55.547Z,10.90
2017-10-03T03:48:22.967Z,11.17
2017-10-03T03:50:50.367Z,10.70
2017-10-03T03:53:17.766Z,10.67
2017-10-03T03:55:45.190Z,11.10
2017-10-03T03:58:12.587Z,10.13
2017-10-03T04:00:39.991Z,10.60
2017-10-03T04:03:07.407Z,11.37
2017-10-03T04:05:34.799Z,11.20
2017-10-03T04:08:02.199Z,10.60
2017-10-03T04:10:29.615Z,10.30
2017-10-03T04:12:57.019Z,10.47
2017-10-03T04:15:24.416Z,12.10
2017-10-03T04:17:51.847Z,10.83
2017-10-03T04:20:19.249Z,10.97
2017-10-03T04:22:46.643Z,12.00
2017-10-03T04:25:14.059Z,11.97
2017-10-03T04:27:42.159Z,11.80
2017-10-03T04:30:09.563Z,11.70
2017-10-03T04:32:38.916Z,12.40
2017-10-03T04:35:07.036Z,12.83
2017-10-03T04:37:34.423Z,12.23
2017-10-03T04:40:01.847Z,13.00
2017-10-03T04:42:30.281Z,13.23
2017-10-03T04:44:59.510Z,12.70
2017-10-03T04:47:26.926Z,13.50
2017-10-03T04:49:54.323Z,15.00
2017-10-03T04:52:21.723Z,15.70
2017-10-03T04:54:49.140Z,14.00
2017-10-03T04:57:16.538Z,15.17
2017-10-03T04:59:43.935Z,16.03
2017-10-03T05:02:11.358Z,14.47
2017-10-03T05:04:38.762Z,15.23
2017-10-03T05:07:07.164Z,15.20
2017-10-03T05:09:36.492Z,15.87
2017-10-03T05:12:03.918Z,15.13
2017-10-03T05:14:41.707Z,15.27
2017-10-03T05:17:09.144Z,15.57
2017-10-03T05:19:40.425Z,18.30
2017-10-03T05:22:07.847Z,16.87
2017-10-03T05:24:38.846Z,17.17
2017-10-03T05:27:06.280Z,16.30
2017-10-03T05:29:48.583Z,16.87
2017-10-03T05:32:28.307Z,17.50
2017-10-03T05:34:55.723Z,18.77
2017-10-03T05:37:24.310Z,19.27
2017-10-03T05:39:51.711Z,17.87
2017-10-03T05:42:19.123Z,19.10
2017-10-03T05:44:46.527Z,17.30
2017-10-03T05:47:13.926Z,17.90
2017-10-03T05:49:41.338Z,18.43
2017-10-03T05:52:08.743Z,16.70
2017-10-03T05:54:36.147Z,17.97
2017-10-03T05:57:03.561Z,17.90
2017-10-03T05:59:30.950Z,16.97
2017-10-03T06:01:58.372Z,16.57
2017-10-03T06:04:25.791Z,14.33
2017-10-03T06:06:53.192Z,15.70
2017-10-03T06:09:20.591Z,16.93
2017-10-03T06:11:48.004Z,16.00
2017-10-03T06:14:15.399Z,15.67
2017-10-03T06:16:42.803Z,15.27
2017-10-03T06:19:10.221Z,15.20
2017-10-03T06:21:37.631Z,15.40
2017-10-03T06:24:05.031Z,16.43
2017-10-03T06:26:32.453Z,14.20
2017-10-03T06:28:59.852Z,16.03
2017-10-03T06:31:27.254Z,13.90
2017-10-03T06:33:54.669Z,14.40
2017-10-03T06:36:22.072Z,13.90
2017-10-03T06:38:49.471Z,13.60
2017-10-03T06:41:16.887Z,11.73
2017-10-03T06:43:44.293Z,12.37
2017-10-03T06:46:11.693Z,12.60
2017-10-03T06:48:39.131Z,12.77
2017-10-03T06:51:06.530Z,12.20
2017-10-03T06:53:35.042Z,12.10
2017-10-03T06:56:02.464Z,12.00
2017-10-03T06:58:29.864Z,12.40
2017-10-03T07:00:57.260Z,11.97
2017-10-03T07:03:24.682Z,12.37
2017-10-03T07:05:52.075Z,12.00
2017-10-03T07:08:19.796Z,11.70
2017-10-03T07:10:47.232Z,12.73
2017-10-03T07:13:14.627Z,11.50
2017-10-03T07:15:42.023Z,11.90
2017-10-03T07:18:09.444Z,11.07
2017-10-03T07:20:36.844Z,11.43
2017-10-03T07:23:04.248Z,12.60
2017-10-03T07:25:31.663Z,13.57
2017-10-03T07:27:59.064Z,12.60
2017-10-03T07:30:26.467Z,13.57
2017-10-03T07:32:53.885Z,12.90
2017-10-03T07:35:21.278Z,12.53
2017-10-03T07:37:48.678Z,15.07
2017-10-03T07:40:16.109Z,13.07
2017-10-03T07:42:43.507Z,13.90
2017-10-03T07:45:10.910Z,14.07
2017-10-03T07:47:38.330Z,14.43
2017-10-03T07:50:05.735Z,13.80
2017-10-03T07:52:33.151Z,15.30
2017-10-03T07:55:00.570Z,13.03
2017-10-03T07:57:27.990Z,13.50
2017-10-03T07:59:55.387Z,12.37
2017-10-03T08:02:22.803Z,13.00
2017-10-03T08:04:50.200Z,13.37
2017-10-03T08:07:17.595Z,12.50
2017-10-03T08:09:45.019Z,13.20
2017-10-03T08:12:12.411Z,12.73
2017-10-03T08:14:39.815Z,14.20
2017-10-03T08:17:07.235Z,14.90
2017-10-03T08:19:34.634Z,14.03
2017-10-03T08:22:02.035Z,14.03
2017-10-03T08:24:29.590Z,15.63
2017-10-03T08:26:56.996Z,16.33
2017-10-03T08:29:24.431Z,14.90
2017-10-03T08:31:51.851Z,14.10
2017-10-03T08:34:25.472Z,14.80
2017-10-03T08:37:05.252Z,14.40
2017-10-03T08:39:36.287Z,12.87
2017-10-03T08:42:03.753Z,13.93
2017-10-03T08:44:31.218Z,14.33
2017-10-03T08:46:58.660Z,13.37
2017-10-03T08:49:26.064Z,12.80
2017-10-03T08:51:53.492Z,12.80
2017-10-03T08:54:20.888Z,13.87
2017-10-03T08:56:48.299Z,13.30
2017-10-03T08:59:15.711Z,13.40
2017-10-03T09:01:43.115Z,13.47
2017-10-03T09:04:10.620Z,13.20
2017-10-03T09:06:38.027Z,13.43
2017-10-03T09:09:07.417Z,12.63
2017-10-03T09:11:34.808Z,11.43
2017-10-03T09:14:02.223Z,11.87
2017-10-03T09:16:29.622Z,12.20
2017-10-03T09:18:57.023Z,11.70
2017-10-03T09:21:31.950Z,11.83
2017-10-03T09:23:59.355Z,11.73
2017-10-03T09:26:26.762Z,10.87
2017-10-03T09:28:54.171Z,10.30
2017-10-03T09:31:21.577Z,10.60
2017-10-03T09:33:48.970Z,12.33
2017-10-03T09:36:16.382Z,10.10
2017-10-03T09:38:53.555Z,11.43
2017-10-03T09:41:20.980Z,11.63
2017-10-03T09:43:48.375Z,11.10
2017-10-03T09:46:15.786Z,11.17
2017-10-03T09:48:43.224Z,10.00
2017-10-03T09:51:20.875Z,10.33
2017-10-03T09:53:48.283Z,10.00
2017-10-03T09:56:15.684Z,9.40
2017-10-03T09:58:43.082Z,11.10
2017-10-03T10:01:10.558Z,10.00
2017-10-03T10:03:37.959Z,9.90
2017-10-03T10:06:05.350Z,9.90
2017-10-03T10:08:32.763Z,8.67
2017-10-03T10:11:00.158Z,9.03
2017-10-03T10:13:27.570Z,9.63
2017-10-03T10:15:54.980Z,9.30
2017-10-03T10:18:22.396Z,11.03
2017-10-03T10:20:49.804Z,11.03
2017-10-03T10:23:17.468Z,10.47
2017-10-03T10:25:44.852Z,10.00
2017-10-03T10:28:13.215Z,10.37
2017-10-03T10:30:40.623Z,9.73
2017-10-03T10:33:08.651Z,10.57
2017-10-03T10:35:36.114Z,10.93
2017-10-03T10:38:03.518Z,10.50
2017-10-03T10:40:32.933Z,9.57
2017-10-03T10:43:00.326Z,10.80
2017-10-03T10:45:27.767Z,9.60
2017-10-03T10:47:55.170Z,10.10
2017-10-03T10:50:22.620Z,8.77
2017-10-03T10:52:50.039Z,8.87
2017-10-03T10:55:17.445Z,9.20
2017-10-03T10:57:44.829Z,8.10
2017-10-03T11:00:13.214Z,8.97
2017-10-03T11:02:40.612Z,9.17
2017-10-03T11:05:08.010Z,8.10
2017-10-03T11:07:35.424Z,8.87
2017-10-03T11:10:02.818Z,9.13
2017-10-03T11:12:30.216Z,9.47
2017-10-03T11:14:57.632Z,8.70
2017-10-03T11:17:25.019Z,9.10
2017-10-03T11:19:52.418Z,8.17
2017-10-03T11:22:19.827Z,9.13
2017-10-03T11:24:47.219Z,8.47
2017-10-03T11:27:14.619Z,9.00
2017-10-03T11:29:42.027Z,8.93
2017-10-03T11:32:09.427Z,8.70
2017-10-03T11:34:36.828Z,9.47
2017-10-03T11:37:04.267Z,8.33
2017-10-03T11:39:31.700Z,8.30
2017-10-03T11:41:59.091Z,8.43
2017-10-03T11:44:32.838Z,8.40
2017-10-03T11:47:00.235Z,8.90
2017-10-03T11:49:27.679Z,8.10
2017-10-03T11:51:55.891Z,8.57
2017-10-03T11:54:23.285Z,8.37
2017-10-03T11:56:50.672Z,7.67
2017-10-03T11:59:18.078Z,7.63
2017-10-03T12:01:45.475Z,7.37
2017-10-03T12:04:13.500Z,9.10
2017-10-03T12:06:40.891Z,7.20
2017-10-03T12:09:08.287Z,7.90
2017-10-03T12:11:35.683Z,7.93
2017-10-03T12:14:03.159Z,7.43
2017-10-03T12:16:31.580Z,7.30
2017-10-03T12:18:58.979Z,7.47
2017-10-03T12:21:27.320Z,7.50
2017-10-03T12:23:55.718Z,7.00
2017-10-03T12:26:23.130Z,6.87
2017-10-03T12:28:50.530Z,7.27
2017-10-03T12:31:17.919Z,7.00
2017-10-03T12:33:45.311Z,6.60
2017-10-03T12:36:12.724Z,7.03
2017-10-03T12:38:40.126Z,7.00
2017-10-03T12:41:07.518Z,6.73
2017-10-03T12:43:34.919Z,6.30
2017-10-03T12:46:02.315Z,7.20
2017-10-03T12:48:30.436Z,7.03
2017-10-03T12:50:57.864Z,7.03
2017-10-03T12:53:25.303Z,7.50
2017-10-03T12:55:52.705Z,7.17
2017-10-03T12:58:20.114Z,7.40
2017-10-03T13:00:47.572Z,8.07
2017-10-03T13:03:14.997Z,8.00
2017-10-03T13:05:42.440Z,8.20
2017-10-03T13:08:09.859Z,8.17
2017-10-03T13:10:37.276Z,8.00
2017-10-03T13:13:04.679Z,7.60
2017-10-03T13:15:32.078Z,8.10
2017-10-03T13:17:59.472Z,7.63
2017-10-03T13:20:26.895Z,8.47
2017-10-03T13:22:54.308Z,8.13
2017-10-03T13:25:21.700Z,7.90
2017-10-03T13:27:49.146Z,7.53
2017-10-03T13:30:16.537Z,6.60
2017-10-03T13:32:43.944Z,7.60
2017-10-03T13:35:11.375Z,8.20
2017-10-03T13:37:38.774Z,8.17
2017-10-03T13:40:06.154Z,8.47
2017-10-03T13:42:33.563Z,8.63
2017-10-03T13:45:00.959Z,8.80
2017-10-03T13:47:28.350Z,8.57
2017-10-03T13:49:55.766Z,8.67
2017-10-03T13:52:23.967Z,8.80
2017-10-03T13:54:55.708Z,9.23
2017-10-03T13:57:24.097Z,8.70
2017-10-03T13:59:58.590Z,9.23
2017-10-03T14:02:25.963Z,8.60
2017-10-03T14:04:54.166Z,8.00
2017-10-03T14:07:22.807Z,8.37
2017-10-03T14:09:51.730Z,9.10
2017-10-03T14:12:20.011Z,9.37
2017-10-03T14:14:48.243Z,9.43
2017-10-03T14:17:16.324Z,8.83
2017-10-03T14:19:43.740Z,9.17
2017-10-03T14:22:11.150Z,8.97
2017-10-03T14:24:39.291Z,8.87
2017-10-03T14:27:07.001Z,9.10
2017-10-03T14:29:34.411Z,9.83
2017-10-03T14:32:02.575Z,10.03
2017-10-03T14:34:30.053Z,10.37
2017-10-03T14:36:57.495Z,9.73
2017-10-03T14:39:25.939Z,11.27
2017-10-03T14:41:53.353Z,10.77
2017-10-03T14:44:20.795Z,10.37
2017-10-03T14:46:48.241Z,11.23
2017-10-03T14:49:15.729Z,10.10
2017-10-03T14:51:43.143Z,10.37
2017-10-03T14:54:10.557Z,10.03
2017-10-03T14:56:38.571Z,10.90
2017-10-03T14:59:06.005Z,13.00
2017-10-03T15:01:33.440Z,11.80
2017-10-03T15:04:00.886Z,10.37
2017-10-03T15:06:28.363Z,9.97
2017-10-03T15:08:55.808Z,9.80
2017-10-03T15:11:23.198Z,9.10
2017-10-03T15:13:56.655Z,9.03
2017-10-03T15:16:25.040Z,9.70
2017-10-03T15:18:52.422Z,8.03
2017-10-03T15:21:19.871Z,8.37
2017-10-03T15:23:47.260Z,8.03
2017-10-03T15:26:14.671Z,7.73
2017-10-03T15:28:42.267Z,8.20
2017-10-03T15:31:09.684Z,8.80
2017-10-03T15:33:37.079Z,8.37
2017-10-03T15:36:04.490Z,8.27
2017-10-03T15:38:31.911Z,8.33
2017-10-03T15:40:59.299Z,8.00
2017-10-03T15:43:27.731Z,7.90
2017-10-03T15:45:55.131Z,8.37
2017-10-03T15:48:22.533Z,7.70
2017-10-03T15:50:49.939Z,8.30
2017-10-03T15:53:17.347Z,7.97
2017-10-03T15:55:44.741Z,8.00
2017-10-03T15:58:12.147Z,7.90
2017-10-03T16:00:39.555Z,8.23
2017-10-03T16:03:06.955Z,8.23
2017-10-03T16:05:34.375Z,8.37
2017-10-03T16:08:01.798Z,7.43
2017-10-03T16:10:29.215Z,7.90
2017-10-03T16:12:56.639Z,8.77
2017-10-03T16:15:24.128Z,9.33
2017-10-03T16:17:51.515Z,8.67
2017-10-03T16:20:18.935Z,8.10
2017-10-03T16:22:53.820Z,7.93
2017-10-03T16:25:22.156Z,7.93
2017-10-03T16:27:49.558Z,8.67
2017-10-03T16:30:16.970Z,7.70
2017-10-03T16:32:44.450Z,7.90
2017-10-03T16:35:11.858Z,8.30
2017-10-03T16:37:39.243Z,8.70
2017-10-03T16:40:06.665Z,8.10
2017-10-03T16:42:34.087Z,8.23
2017-10-03T16:45:01.672Z,7.77
2017-10-03T16:47:29.114Z,7.77
2017-10-03T16:49:56.537Z,9.00
2017-10-03T16:52:23.964Z,7.83
2017-10-03T16:54:51.510Z,8.07
2017-10-03T16:57:18.902Z,7.60
2017-10-03T16:59:46.287Z,8.93
2017-10-03T17:02:14.832Z,7.90
2017-10-03T17:04:42.263Z,8.23
2017-10-03T17:07:09.651Z,8.40
2017-10-03T17:09:37.075Z,8.77
2017-10-03T17:12:04.475Z,9.47
2017-10-03T17:14:31.879Z,9.40
2017-10-03T17:16:59.295Z,8.80
2017-10-03T17:19:26.702Z,9.17
2017-10-03T17:21:55.310Z,8.90
2017-10-03T17:24:22.710Z,10.10
2017-10-03T17:26:50.116Z,10.33
2017-10-03T17:29:17.531Z,9.53
2017-10-03T17:31:44.968Z,9.93
2017-10-03T17:34:12.372Z,9.77
2017-10-03T17:36:39.759Z,10.30
2017-10-03T17:39:07.184Z,10.90
2017-10-03T17:41:34.599Z,10.27
2017-10-03T17:44:01.999Z,9.70
2017-10-03T17:46:29.420Z,10.37
2017-10-03T17:48:56.856Z,10.53
2017-10-03T17:51:24.325Z,10.23
2017-10-03T17:53:51.768Z,9.30
2017-10-03T17:56:19.167Z,11.03
2017-10-03T17:58:46.584Z,10.33
2017-10-03T18:01:14.028Z,12.63
2017-10-03T18:03:41.454Z,11.40
2017-10-03T18:06:09.507Z,10.30
2017-10-03T18:08:38.048Z,9.47
2017-10-03T18:11:07.367Z,9.93
2017-10-03T18:13:34.783Z,9.97
2017-10-03T18:16:03.052Z,9.00
2017-10-03T18:18:30.467Z,9.37
2017-10-03T18:20:58.959Z,10.60
2017-10-03T18:23:26.379Z,9.77
2017-10-03T18:25:55.413Z,9.37
2017-10-03T18:28:22.835Z,10.00
2017-10-03T18:30:51.179Z,9.37
2017-10-03T18:33:18.595Z,9.40
2017-10-03T18:35:45.990Z,8.73
2017-10-03T18:38:13.402Z,9.70
2017-10-03T18:40:41.171Z,9.37
2017-10-03T18:43:09.413Z,9.70
2017-10-03T18:45:36.814Z,10.37
2017-10-03T18:48:04.207Z,9.70
2017-10-03T18:50:32.428Z,8.67
2017-10-03T18:52:59.839Z,8.73
2017-10-03T18:55:27.234Z,9.43
2017-10-03T18:57:54.636Z,9.50
2017-10-03T19:00:22.061Z,9.20
2017-10-03T19:02:49.451Z,9.00
2017-10-03T19:05:16.843Z,9.03
2017-10-03T19:07:44.267Z,10.10
2017-10-03T19:10:11.668Z,9.40
2017-10-03T19:12:39.082Z,9.30
2017-10-03T19:15:06.479Z,9.83
2017-10-03T19:17:33.875Z,9.23
2017-10-03T19:20:01.271Z,8.30
2017-10-03T19:22:28.708Z,9.53
2017-10-03T19:24:56.099Z,9.97
2017-10-03T19:27:23.499Z,9.90
2017-10-03T19:29:50.917Z,8.63
2017-10-03T19:32:18.303Z,8.50
2017-10-03T19:34:45.702Z,9.77
2017-10-03T19:37:13.110Z,9.83
2017-10-03T19:39:40.503Z,9.93
2017-10-03T19:42:07.895Z,9.40
2017-10-03T19:44:35.319Z,9.30
2017-10-03T19:47:02.715Z,10.00
2017-10-03T19:49:30.110Z,9.73
2017-10-03T19:51:57.523Z,11.00
2017-10-03T19:54:24.965Z,9.70
2017-10-03T19:56:52.343Z,9.93
2017-10-03T19:59:20.672Z,9.77
2017-10-03T20:01:48.073Z,10.30
2017-10-03T20:04:15.463Z,9.13
2017-10-03T20:06:42.887Z,8.97
2017-10-03T20:09:10.280Z,9.53
2017-10-03T20:11:37.679Z,9.13
2017-10-03T20:14:07.562Z,9.20
2017-10-03T20:16:34.955Z,8.53
2017-10-03T20:19:02.356Z,8.17
2017-10-03T20:21:29.763Z,8.37
2017-10-03T20:23:57.159Z,8.80
2017-10-03T20:26:24.554Z,9.23
2017-10-03T20:28:51.975Z,9.07
2017-10-03T20:31:19.377Z,8.30
2017-10-03T20:33:46.779Z,9.60
2017-10-03T20:36:14.192Z,9.00
2017-10-03T20:38:41.583Z,8.33
2017-10-03T20:41:08.979Z,8.40
2017-10-03T20:43:36.383Z,9.23
2017-10-03T20:46:03.781Z,9.57
2017-10-03T20:48:31.179Z,9.10
2017-10-03T20:50:58.615Z,8.63
2017-10-03T20:53:26.003Z,8.20
2017-10-03T20:55:53.395Z,8.27
2017-10-03T20:58:20.827Z,9.87
2017-10-03T21:00:48.195Z,8.80
2017-10-03T21:03:15.597Z,10.00
2017-10-03T21:05:43.011Z,9.60
2017-10-03T21:08:10.415Z,9.93
2017-10-03T21:10:37.816Z,9.40
2017-10-03T21:13:05.248Z,9.73
2017-10-03T21:15:32.650Z,9.87
2017-10-03T21:18:00.056Z,10.03
2017-10-03T21:20:27.472Z,10.30
2017-10-03T21:22:54.868Z,10.87
2017-10-03T21:25:22.272Z,10.40
2017-10-03T21:27:49.679Z,9.50
2017-10-03T21:30:17.078Z,10.13
2017-10-03T21:32:44.479Z,11.33
2017-10-03T21:35:11.897Z,11.00
2017-10-03T21:37:39.294Z,11.57
2017-10-03T21:40:06.697Z,10.40
2017-10-03T21:42:45.850Z,11.10
2017-10-03T21:45:13.247Z,10.50
2017-10-03T21:47:40.659Z,10.60
2017-10-03T21:50:08.071Z,11.13
2017-10-03T21:52:35.468Z,10.27
2017-10-03T21:55:02.871Z,10.53
2017-10-03T21:57:30.294Z,9.80
2017-10-03T21:59:57.702Z,10.73
2017-10-03T22:02:25.094Z,9.90
2017-10-03T22:04:52.509Z,10.73
2017-10-03T22:07:19.908Z,10.30
2017-10-03T22:09:47.308Z,10.87
2017-10-03T22:12:14.726Z,10.83
2017-10-03T22:14:42.144Z,11.60
2017-10-03T22:17:09.551Z,11.60
2017-10-03T22:19:36.983Z,11.33
2017-10-03T22:22:04.383Z,10.97
2017-10-03T22:24:31.784Z,11.73
2017-10-03T22:26:59.203Z,11.70
2017-10-03T22:29:26.610Z,12.13
2017-10-03T22:31:54.011Z,11.60
2017-10-03T22:34:21.435Z,11.10
2017-10-03T22:36:48.837Z,12.20
2017-10-03T22:39:16.226Z,11.50
2017-10-03T22:41:43.647Z,12.90
2017-10-03T22:44:11.047Z,11.67
2017-10-03T22:46:38.448Z,11.70
2017-10-03T22:49:05.858Z,11.93
2017-10-03T22:51:38.795Z,11.87
2017-10-03T22:54:06.206Z,12.43
2017-10-03T22:56:33.660Z,12.33
2017-10-03T22:59:01.060Z,12.07
2017-10-03T23:01:28.486Z,13.70
2017-10-03T23:03:55.891Z,12.27
2017-10-03T23:06:23.293Z,12.80
2017-10-03T23:08:50.699Z,12.63
2017-10-03T23:11:18.106Z,12.50
2017-10-03T23:13:45.503Z,12.30
2017-10-03T23:16:12.915Z,12.80
2017-10-03T23:18:40.340Z,12.73
2017-10-03T23:21:07.736Z,12.07
2017-10-03T23:23:35.151Z,12.30
2017-10-03T23:26:02.557Z,13.17
2017-10-03T23:28:29.954Z,11.33
2017-10-03T23:30:57.372Z,10.70
2017-10-03T23:33:24.767Z,11.80
2017-10-03T23:35:52.175Z,11.30
2017-10-03T23:38:19.584Z,11.30
2017-10-03T23:40:46.986Z,11.60
2017-10-03T23:43:14.378Z,10.80
2017-10-03T23:45:41.795Z,11.80
2017-10-03T23:48:09.200Z,10.97
2017-10-03T23:50:36.607Z,11.17
2017-10-03T23:53:04.031Z,10.77
2017-10-03T23:55:31.427Z,11.40
2017-10-03T23:57:58.827Z,11.20
